sensor_id;sensor_type;location;lat;lon;timestamp;pressure;altitude;pressure_sealevel;temperature;humidity
77869;BME280;67231;59.144;37.934;2023-12-20T00:00:09;97591.97;;;0.60;81.34
77869;BME280;67231;59.144;37.934;2023-12-20T00:02:35;97588.94;;;0.64;81.75
77869;BME280;67231;59.144;37.934;2023-12-20T00:05:02;97589.00;;;0.72;81.37
77869;BME280;67231;59.144;37.934;2023-12-20T00:07:30;97591.66;;;0.81;81.06
77869;BME280;67231;59.144;37.934;2023-12-20T00:09:57;97590.94;;;0.88;81.13
77869;BME280;67231;59.144;37.934;2023-12-20T00:12:23;97603.34;;;0.95;80.93
77869;BME280;67231;59.144;37.934;2023-12-20T00:14:49;97602.09;;;0.99;80.65
77869;BME280;67231;59.144;37.934;2023-12-20T00:17:16;97600.00;;;1.02;80.76
77869;BME280;67231;59.144;37.934;2023-12-20T00:19:42;97593.66;;;1.05;80.91
77869;BME280;67231;59.144;37.934;2023-12-20T00:22:08;97592.84;;;1.04;81.11
77869;BME280;67231;59.144;37.934;2023-12-20T00:24:35;97581.34;;;0.97;80.77
77869;BME280;67231;59.144;37.934;2023-12-20T00:27:01;97588.00;;;0.92;80.98
77869;BME280;67231;59.144;37.934;2023-12-20T00:29:28;97584.19;;;0.86;80.78
77869;BME280;67231;59.144;37.934;2023-12-20T00:31:54;97577.63;;;0.82;80.96
77869;BME280;67231;59.144;37.934;2023-12-20T00:34:20;97572.03;;;0.77;80.65
77869;BME280;67231;59.144;37.934;2023-12-20T00:36:47;97568.72;;;0.66;80.33
77869;BME280;67231;59.144;37.934;2023-12-20T00:39:13;97568.50;;;0.60;80.74
77869;BME280;67231;59.144;37.934;2023-12-20T00:41:39;97567.16;;;0.56;80.66
77869;BME280;67231;59.144;37.934;2023-12-20T00:44:06;97563.50;;;0.48;80.68
77869;BME280;67231;59.144;37.934;2023-12-20T00:46:32;97569.16;;;0.44;81.19
77869;BME280;67231;59.144;37.934;2023-12-20T00:48:58;97555.06;;;0.36;81.58
77869;BME280;67231;59.144;37.934;2023-12-20T00:51:25;97561.84;;;0.29;81.27
77869;BME280;67231;59.144;37.934;2023-12-20T00:53:51;97565.03;;;0.23;80.77
77869;BME280;67231;59.144;37.934;2023-12-20T00:56:21;97560.28;;;0.18;81.33
77869;BME280;67231;59.144;37.934;2023-12-20T00:58:47;97557.16;;;0.15;81.62
77869;BME280;67231;59.144;37.934;2023-12-20T01:01:13;97560.34;;;0.09;81.76
77869;BME280;67231;59.144;37.934;2023-12-20T01:03:40;97552.13;;;0.04;81.65
77869;BME280;67231;59.144;37.934;2023-12-20T01:06:06;97554.06;;;0.02;81.86
77869;BME280;67231;59.144;37.934;2023-12-20T01:08:33;97549.81;;;0.01;81.84
77869;BME280;67231;59.144;37.934;2023-12-20T01:11:04;97555.19;;;-0.01;82.17
77869;BME280;67231;59.144;37.934;2023-12-20T01:13:30;97550.13;;;-0.03;81.74
77869;BME280;67231;59.144;37.934;2023-12-20T01:15:57;97553.66;;;-0.04;82.02
77869;BME280;67231;59.144;37.934;2023-12-20T01:18:23;97546.84;;;-0.05;82.29
77869;BME280;67231;59.144;37.934;2023-12-20T01:20:49;97554.09;;;-0.08;82.55
77869;BME280;67231;59.144;37.934;2023-12-20T01:23:15;97541.38;;;-0.11;82.40
77869;BME280;67231;59.144;37.934;2023-12-20T01:25:42;97543.16;;;-0.12;82.36
77869;BME280;67231;59.144;37.934;2023-12-20T01:28:09;97536.16;;;-0.11;82.01
77869;BME280;67231;59.144;37.934;2023-12-20T01:30:35;97540.69;;;-0.13;82.28
77869;BME280;67231;59.144;37.934;2023-12-20T01:33:02;97546.56;;;-0.11;82.76
77869;BME280;67231;59.144;37.934;2023-12-20T01:35:28;97538.25;;;-0.15;82.15
77869;BME280;67231;59.144;37.934;2023-12-20T01:37:54;97534.97;;;-0.17;81.98
77869;BME280;67231;59.144;37.934;2023-12-20T01:40:24;97536.63;;;-0.16;82.17
77869;BME280;67231;59.144;37.934;2023-12-20T01:43:06;97528.09;;;-0.18;82.51
77869;BME280;67231;59.144;37.934;2023-12-20T01:45:32;97534.31;;;-0.19;82.38
77869;BME280;67231;59.144;37.934;2023-12-20T01:47:59;97526.47;;;-0.19;82.54
77869;BME280;67231;59.144;37.934;2023-12-20T01:50:27;97532.50;;;-0.19;82.49
77869;BME280;67231;59.144;37.934;2023-12-20T01:52:55;97529.22;;;-0.21;82.85
77869;BME280;67231;59.144;37.934;2023-12-20T01:55:24;97525.94;;;-0.23;82.39
77869;BME280;67231;59.144;37.934;2023-12-20T01:57:51;97513.44;;;-0.19;82.78
77869;BME280;67231;59.144;37.934;2023-12-20T02:00:17;97514.50;;;-0.12;82.51
77869;BME280;67231;59.144;37.934;2023-12-20T02:02:44;97513.69;;;-0.12;82.73
77869;BME280;67231;59.144;37.934;2023-12-20T02:05:12;97523.13;;;-0.11;82.53
77869;BME280;67231;59.144;37.934;2023-12-20T02:07:38;97506.81;;;-0.13;81.71
77869;BME280;67231;59.144;37.934;2023-12-20T02:10:05;97508.84;;;-0.07;82.46
77869;BME280;67231;59.144;37.934;2023-12-20T02:12:32;97502.91;;;0.01;82.10
77869;BME280;67231;59.144;37.934;2023-12-20T02:14:58;97502.47;;;0.05;82.27
77869;BME280;67231;59.144;37.934;2023-12-20T02:17:25;97491.88;;;0.07;82.17
77869;BME280;67231;59.144;37.934;2023-12-20T02:19:52;97508.56;;;0.14;82.42
77869;BME280;67231;59.144;37.934;2023-12-20T02:22:18;97504.84;;;0.16;81.85
77869;BME280;67231;59.144;37.934;2023-12-20T02:24:45;97498.44;;;0.11;82.31
77869;BME280;67231;59.144;37.934;2023-12-20T02:27:11;97493.00;;;0.04;81.88
77869;BME280;67231;59.144;37.934;2023-12-20T02:29:38;97490.97;;;-0.02;81.96
77869;BME280;67231;59.144;37.934;2023-12-20T02:32:05;97495.97;;;-0.09;81.97
77869;BME280;67231;59.144;37.934;2023-12-20T02:34:31;97496.53;;;-0.15;82.12
77869;BME280;67231;59.144;37.934;2023-12-20T02:36:57;97500.94;;;-0.15;81.92
77869;BME280;67231;59.144;37.934;2023-12-20T02:39:24;97500.78;;;-0.14;82.39
77869;BME280;67231;59.144;37.934;2023-12-20T02:41:50;97500.22;;;-0.08;81.97
77869;BME280;67231;59.144;37.934;2023-12-20T02:44:16;97500.59;;;-0.03;81.83
77869;BME280;67231;59.144;37.934;2023-12-20T02:46:43;97497.03;;;-0.02;81.90
77869;BME280;67231;59.144;37.934;2023-12-20T02:49:09;97494.28;;;0.00;81.79
77869;BME280;67231;59.144;37.934;2023-12-20T02:51:35;97492.63;;;-0.01;81.51
77869;BME280;67231;59.144;37.934;2023-12-20T02:54:04;97488.22;;;-0.01;81.29
77869;BME280;67231;59.144;37.934;2023-12-20T02:56:32;97491.81;;;-0.02;81.19
77869;BME280;67231;59.144;37.934;2023-12-20T02:58:59;97493.72;;;-0.04;81.18
77869;BME280;67231;59.144;37.934;2023-12-20T03:01:26;97491.97;;;-0.03;81.46
77869;BME280;67231;59.144;37.934;2023-12-20T03:03:52;97494.41;;;-0.02;81.34
77869;BME280;67231;59.144;37.934;2023-12-20T03:06:19;97500.28;;;0.01;81.58
77869;BME280;67231;59.144;37.934;2023-12-20T03:08:45;97510.44;;;0.04;81.35
77869;BME280;67231;59.144;37.934;2023-12-20T03:11:12;97502.03;;;0.10;81.35
77869;BME280;67231;59.144;37.934;2023-12-20T03:13:38;97502.38;;;0.15;80.95
77869;BME280;67231;59.144;37.934;2023-12-20T03:16:11;97507.00;;;0.21;81.34
77869;BME280;67231;59.144;37.934;2023-12-20T03:18:38;97507.00;;;0.21;81.14
77869;BME280;67231;59.144;37.934;2023-12-20T03:21:05;97503.41;;;0.22;80.86
77869;BME280;67231;59.144;37.934;2023-12-20T03:23:31;97500.97;;;0.21;80.71
77869;BME280;67231;59.144;37.934;2023-12-20T03:26:01;97506.88;;;0.23;81.03
77869;BME280;67231;59.144;37.934;2023-12-20T03:28:31;97500.81;;;0.22;80.50
77869;BME280;67231;59.144;37.934;2023-12-20T03:30:57;97507.00;;;0.21;81.08
77869;BME280;67231;59.144;37.934;2023-12-20T03:33:24;97504.25;;;0.23;80.27
77869;BME280;67231;59.144;37.934;2023-12-20T03:35:50;97504.63;;;0.28;80.75
77869;BME280;67231;59.144;37.934;2023-12-20T03:38:16;97519.00;;;0.32;80.47
77869;BME280;67231;59.144;37.934;2023-12-20T03:40:43;97516.94;;;0.35;80.35
77869;BME280;67231;59.144;37.934;2023-12-20T03:43:09;97505.50;;;0.36;80.57
77869;BME280;67231;59.144;37.934;2023-12-20T03:45:35;97514.16;;;0.37;80.84
77869;BME280;67231;59.144;37.934;2023-12-20T03:48:02;97506.34;;;0.37;80.39
77869;BME280;67231;59.144;37.934;2023-12-20T03:50:28;97501.78;;;0.39;80.00
77869;BME280;67231;59.144;37.934;2023-12-20T03:52:55;97499.03;;;0.41;80.13
77869;BME280;67231;59.144;37.934;2023-12-20T03:55:21;97502.59;;;0.40;80.18
77869;BME280;67231;59.144;37.934;2023-12-20T03:57:47;97497.38;;;0.40;80.24
77869;BME280;67231;59.144;37.934;2023-12-20T04:00:14;97484.03;;;0.43;80.28
77869;BME280;67231;59.144;37.934;2023-12-20T04:02:41;97477.16;;;0.42;79.71
77869;BME280;67231;59.144;37.934;2023-12-20T04:05:09;97479.13;;;0.40;80.22
77869;BME280;67231;59.144;37.934;2023-12-20T04:07:36;97487.25;;;0.36;79.82
77869;BME280;67231;59.144;37.934;2023-12-20T04:10:03;97477.41;;;0.30;79.93
77869;BME280;67231;59.144;37.934;2023-12-20T04:12:32;97484.19;;;0.23;80.54
77869;BME280;67231;59.144;37.934;2023-12-20T04:14:59;97488.59;;;0.23;80.05
77869;BME280;67231;59.144;37.934;2023-12-20T04:17:26;97500.38;;;0.27;80.18
77869;BME280;67231;59.144;37.934;2023-12-20T04:19:52;97501.34;;;0.26;79.94
77869;BME280;67231;59.144;37.934;2023-12-20T04:22:18;97509.84;;;0.28;80.34
77869;BME280;67231;59.144;37.934;2023-12-20T04:24:45;97519.44;;;0.27;79.67
77869;BME280;67231;59.144;37.934;2023-12-20T04:27:12;97529.72;;;0.29;80.10
77869;BME280;67231;59.144;37.934;2023-12-20T04:29:38;97522.44;;;0.32;80.16
77869;BME280;67231;59.144;37.934;2023-12-20T04:32:05;97525.41;;;0.38;80.05
77869;BME280;67231;59.144;37.934;2023-12-20T04:34:31;97525.47;;;0.46;79.90
77869;BME280;67231;59.144;37.934;2023-12-20T04:36:57;97525.03;;;0.50;80.00
77869;BME280;67231;59.144;37.934;2023-12-20T04:39:23;97532.56;;;0.53;79.48
77869;BME280;67231;59.144;37.934;2023-12-20T04:41:50;97528.66;;;0.58;79.84
77869;BME280;67231;59.144;37.934;2023-12-20T04:44:16;97527.56;;;0.60;79.45
77869;BME280;67231;59.144;37.934;2023-12-20T04:46:43;97530.81;;;0.62;79.90
77869;BME280;67231;59.144;37.934;2023-12-20T04:49:09;97536.59;;;0.66;79.22
77869;BME280;67231;59.144;37.934;2023-12-20T04:51:35;97545.06;;;0.68;79.66
77869;BME280;67231;59.144;37.934;2023-12-20T04:54:02;97532.03;;;0.68;79.68
77869;BME280;67231;59.144;37.934;2023-12-20T04:56:28;97525.00;;;0.68;79.62
77869;BME280;67231;59.144;37.934;2023-12-20T04:58:55;97528.56;;;0.67;78.85
77869;BME280;67231;59.144;37.934;2023-12-20T05:01:21;97522.41;;;0.68;79.41
77869;BME280;67231;59.144;37.934;2023-12-20T05:03:47;97525.00;;;0.68;79.03
77869;BME280;67231;59.144;37.934;2023-12-20T05:06:14;97519.78;;;0.68;79.11
77869;BME280;67231;59.144;37.934;2023-12-20T05:08:40;97510.16;;;0.69;79.01
77869;BME280;67231;59.144;37.934;2023-12-20T05:11:07;97518.69;;;0.71;78.85
77869;BME280;67231;59.144;37.934;2023-12-20T05:13:33;97518.53;;;0.72;78.60
77869;BME280;67231;59.144;37.934;2023-12-20T05:16:00;97513.59;;;0.69;78.56
77869;BME280;67231;59.144;37.934;2023-12-20T05:18:26;97520.44;;;0.70;78.27
77869;BME280;67231;59.144;37.934;2023-12-20T05:20:52;97517.69;;;0.72;78.45
77869;BME280;67231;59.144;37.934;2023-12-20T05:23:19;97509.19;;;0.70;77.85
77869;BME280;67231;59.144;37.934;2023-12-20T05:25:46;97513.75;;;0.68;78.20
77869;BME280;67231;59.144;37.934;2023-12-20T05:28:13;97503.97;;;0.70;78.18
77869;BME280;67231;59.144;37.934;2023-12-20T05:30:39;97509.72;;;0.73;78.02
77869;BME280;67231;59.144;37.934;2023-12-20T05:33:06;97510.69;;;0.72;78.02
77869;BME280;67231;59.144;37.934;2023-12-20T05:35:32;97501.88;;;0.73;77.80
77869;BME280;67231;59.144;37.934;2023-12-20T05:37:58;97506.13;;;0.75;78.00
77869;BME280;67231;59.144;37.934;2023-12-20T05:40:25;97499.97;;;0.76;77.81
77869;BME280;67231;59.144;37.934;2023-12-20T05:42:51;97507.94;;;0.74;77.81
77869;BME280;67231;59.144;37.934;2023-12-20T05:45:17;97505.78;;;0.69;77.85
77869;BME280;67231;59.144;37.934;2023-12-20T05:47:44;97501.38;;;0.70;77.71
77869;BME280;67231;59.144;37.934;2023-12-20T05:50:10;97506.88;;;0.67;78.09
77869;BME280;67231;59.144;37.934;2023-12-20T05:52:36;97504.59;;;0.64;78.06
77869;BME280;67231;59.144;37.934;2023-12-20T05:55:03;97511.59;;;0.63;77.46
77869;BME280;67231;59.144;37.934;2023-12-20T05:57:33;97520.09;;;0.65;77.65
77869;BME280;67231;59.144;37.934;2023-12-20T06:00:00;97513.75;;;0.68;77.59
77869;BME280;67231;59.144;37.934;2023-12-20T06:02:26;97518.69;;;0.71;77.90
77869;BME280;67231;59.144;37.934;2023-12-20T06:04:52;97521.66;;;0.76;77.54
77869;BME280;67231;59.144;37.934;2023-12-20T06:07:19;97524.63;;;0.81;77.93
77869;BME280;67231;59.144;37.934;2023-12-20T06:09:46;97527.06;;;0.83;77.75
77869;BME280;67231;59.144;37.934;2023-12-20T06:12:13;97539.97;;;0.84;77.06
77869;BME280;67231;59.144;37.934;2023-12-20T06:14:39;97540.78;;;0.85;77.46
77869;BME280;67231;59.144;37.934;2023-12-20T06:17:05;97538.88;;;0.87;77.54
77869;BME280;67231;59.144;37.934;2023-12-20T06:19:33;97538.03;;;0.86;77.45
77869;BME280;67231;59.144;37.934;2023-12-20T06:21:59;97544.75;;;0.89;77.28
77869;BME280;67231;59.144;37.934;2023-12-20T06:24:26;97536.09;;;0.88;77.13
77869;BME280;67231;59.144;37.934;2023-12-20T06:26:54;97541.84;;;0.92;77.24
77869;BME280;67231;59.144;37.934;2023-12-20T06:29:23;97537.41;;;0.93;77.48
77869;BME280;67231;59.144;37.934;2023-12-20T06:31:49;97536.31;;;0.95;76.83
77869;BME280;67231;59.144;37.934;2023-12-20T06:34:15;97537.13;;;0.96;76.79
77869;BME280;67231;59.144;37.934;2023-12-20T06:36:42;97539.56;;;0.97;76.93
77869;BME280;67231;59.144;37.934;2023-12-20T06:39:08;97530.47;;;1.01;76.82
77869;BME280;67231;59.144;37.934;2023-12-20T06:41:35;97528.38;;;1.05;76.64
77869;BME280;67231;59.144;37.934;2023-12-20T06:44:01;97547.47;;;1.05;76.64
77869;BME280;67231;59.144;37.934;2023-12-20T06:46:27;97529.84;;;1.07;76.71
77869;BME280;67231;59.144;37.934;2023-12-20T06:48:54;97538.66;;;1.06;76.28
77869;BME280;67231;59.144;37.934;2023-12-20T06:51:20;97531.50;;;1.08;75.53
77869;BME280;67231;59.144;37.934;2023-12-20T06:53:47;97523.00;;;1.06;75.90
77869;BME280;67231;59.144;37.934;2023-12-20T06:56:13;97508.75;;;1.01;76.15
77869;BME280;67231;59.144;37.934;2023-12-20T06:58:39;97522.25;;;0.96;76.51
77869;BME280;67231;59.144;37.934;2023-12-20T07:01:11;97517.69;;;0.90;76.71
77869;BME280;67231;59.144;37.934;2023-12-20T07:03:37;97516.84;;;0.89;76.42
77869;BME280;67231;59.144;37.934;2023-12-20T07:06:04;97514.06;;;0.91;76.48
77869;BME280;67231;59.144;37.934;2023-12-20T07:08:30;97520.13;;;0.92;76.48
77869;BME280;67231;59.144;37.934;2023-12-20T07:10:57;97499.25;;;0.92;76.47
77869;BME280;67231;59.144;37.934;2023-12-20T07:13:23;97500.06;;;0.92;76.09
77869;BME280;67231;59.144;37.934;2023-12-20T07:15:50;97509.00;;;0.89;75.98
77869;BME280;67231;59.144;37.934;2023-12-20T07:18:17;97509.16;;;0.88;76.20
77869;BME280;67231;59.144;37.934;2023-12-20T07:20:43;97508.50;;;0.86;76.06
77869;BME280;67231;59.144;37.934;2023-12-20T07:23:09;97516.31;;;0.86;75.95
77869;BME280;67231;59.144;37.934;2023-12-20T07:25:36;97510.50;;;0.92;76.13
77869;BME280;67231;59.144;37.934;2023-12-20T07:28:02;97513.47;;;0.97;76.48
77869;BME280;67231;59.144;37.934;2023-12-20T07:30:29;97506.66;;;1.04;76.16
77869;BME280;67231;59.144;37.934;2023-12-20T07:32:55;97510.28;;;1.12;76.18
77869;BME280;67231;59.144;37.934;2023-12-20T07:35:25;97506.41;;;1.16;76.19
77869;BME280;67231;59.144;37.934;2023-12-20T07:37:52;97513.25;;;1.17;76.13
77869;BME280;67231;59.144;37.934;2023-12-20T07:40:18;97508.53;;;1.20;76.19
77869;BME280;67231;59.144;37.934;2023-12-20T07:42:45;97509.56;;;1.27;75.87
77869;BME280;67231;59.144;37.934;2023-12-20T07:45:11;97512.84;;;1.30;75.99
77869;BME280;67231;59.144;37.934;2023-12-20T07:47:38;97509.56;;;1.27;75.52
77869;BME280;67231;59.144;37.934;2023-12-20T07:50:05;97512.31;;;1.26;75.87
77869;BME280;67231;59.144;37.934;2023-12-20T07:52:31;97526.03;;;1.28;75.79
77869;BME280;67231;59.144;37.934;2023-12-20T07:54:58;97498.97;;;1.29;75.51
77869;BME280;67231;59.144;37.934;2023-12-20T07:57:24;97494.38;;;1.31;75.39
77869;BME280;67231;59.144;37.934;2023-12-20T07:59:50;97485.59;;;1.32;75.37
77869;BME280;67231;59.144;37.934;2023-12-20T08:02:16;97495.38;;;1.30;75.41
77869;BME280;67231;59.144;37.934;2023-12-20T08:04:43;97481.16;;;1.33;74.79
77869;BME280;67231;59.144;37.934;2023-12-20T08:07:09;97473.81;;;1.28;75.26
77869;BME280;67231;59.144;37.934;2023-12-20T08:09:36;97472.50;;;1.24;75.24
77869;BME280;67231;59.144;37.934;2023-12-20T08:12:03;97467.56;;;1.21;75.63
77869;BME280;67231;59.144;37.934;2023-12-20T08:14:30;97475.38;;;1.13;75.77
77869;BME280;67231;59.144;37.934;2023-12-20T08:16:57;97476.00;;;1.06;75.51
77869;BME280;67231;59.144;37.934;2023-12-20T08:19:24;97480.72;;;1.03;75.60
77869;BME280;67231;59.144;37.934;2023-12-20T08:21:50;97480.34;;;0.98;75.78
77869;BME280;67231;59.144;37.934;2023-12-20T08:24:16;97470.03;;;0.96;75.60
77869;BME280;67231;59.144;37.934;2023-12-20T08:26:43;97473.66;;;0.95;75.33
77869;BME280;67231;59.144;37.934;2023-12-20T08:29:09;97465.13;;;0.93;75.04
77869;BME280;67231;59.144;37.934;2023-12-20T08:31:35;97473.94;;;0.92;75.07
77869;BME280;67231;59.144;37.934;2023-12-20T08:34:01;97474.91;;;0.91;75.19
77869;BME280;67231;59.144;37.934;2023-12-20T08:36:28;97462.16;;;0.88;74.96
77869;BME280;67231;59.144;37.934;2023-12-20T08:38:54;97471.81;;;0.87;74.85
77869;BME280;67231;59.144;37.934;2023-12-20T08:41:21;97469.19;;;0.87;74.85
77869;BME280;67231;59.144;37.934;2023-12-20T08:43:47;97464.13;;;0.86;75.10
77869;BME280;67231;59.144;37.934;2023-12-20T08:46:14;97466.72;;;0.86;74.88
77869;BME280;67231;59.144;37.934;2023-12-20T08:48:41;97459.88;;;0.85;74.52
77869;BME280;67231;59.144;37.934;2023-12-20T08:51:07;97468.53;;;0.85;74.69
77869;BME280;67231;59.144;37.934;2023-12-20T08:53:38;97463.16;;;0.87;74.76
77869;BME280;67231;59.144;37.934;2023-12-20T08:56:04;97477.53;;;0.91;74.34
77869;BME280;67231;59.144;37.934;2023-12-20T08:58:31;97488.47;;;0.95;74.19
77869;BME280;67231;59.144;37.934;2023-12-20T09:00:57;97483.78;;;0.98;74.13
77869;BME280;67231;59.144;37.934;2023-12-20T09:03:24;97488.84;;;1.00;73.94
77869;BME280;67231;59.144;37.934;2023-12-20T09:05:50;97487.06;;;1.00;73.92
77869;BME280;67231;59.144;37.934;2023-12-20T09:08:17;97485.72;;;0.96;74.03
77869;BME280;67231;59.144;37.934;2023-12-20T09:10:43;97480.63;;;0.95;74.08
77869;BME280;67231;59.144;37.934;2023-12-20T09:13:10;97474.59;;;0.94;74.29
77869;BME280;67231;59.144;37.934;2023-12-20T09:15:37;97493.84;;;0.93;74.11
77869;BME280;67231;59.144;37.934;2023-12-20T09:18:03;97482.75;;;0.91;74.00
77869;BME280;67231;59.144;37.934;2023-12-20T09:20:30;97485.50;;;0.89;74.16
77869;BME280;67231;59.144;37.934;2023-12-20T09:22:57;97501.69;;;0.93;73.79
77869;BME280;67231;59.144;37.934;2023-12-20T09:25:24;97502.50;;;0.94;73.54
77869;BME280;67231;59.144;37.934;2023-12-20T09:27:52;97486.53;;;0.97;73.65
77869;BME280;67231;59.144;37.934;2023-12-20T09:30:19;97499.81;;;1.03;73.33
77869;BME280;67231;59.144;37.934;2023-12-20T09:32:45;97487.72;;;1.02;73.53
77869;BME280;67231;59.144;37.934;2023-12-20T09:35:12;97496.38;;;1.03;73.29
77869;BME280;67231;59.144;37.934;2023-12-20T09:37:38;97500.09;;;1.00;73.14
77869;BME280;67231;59.144;37.934;2023-12-20T09:40:09;97505.97;;;1.02;73.28
77869;BME280;67231;59.144;37.934;2023-12-20T09:42:56;97489.50;;;1.02;73.16
77869;BME280;67231;59.144;37.934;2023-12-20T09:45:24;97479.06;;;1.02;73.07
77869;BME280;67231;59.144;37.934;2023-12-20T09:47:52;97503.72;;;1.07;72.84
77869;BME280;67231;59.144;37.934;2023-12-20T09:50:22;97504.09;;;1.13;72.58
77869;BME280;67231;59.144;37.934;2023-12-20T09:52:51;97498.63;;;1.24;72.51
77869;BME280;67231;59.144;37.934;2023-12-20T09:55:18;97504.84;;;1.31;71.80
77869;BME280;67231;59.144;37.934;2023-12-20T09:57:47;97503.22;;;1.30;71.71
77869;BME280;67231;59.144;37.934;2023-12-20T10:00:14;97505.16;;;1.28;72.08
77869;BME280;67231;59.144;37.934;2023-12-20T10:02:57;97511.72;;;1.32;71.53
77869;BME280;67231;59.144;37.934;2023-12-20T10:05:26;97512.72;;;1.39;71.87
77869;BME280;67231;59.144;37.934;2023-12-20T10:07:53;97518.66;;;1.50;71.57
77869;BME280;67231;59.144;37.934;2023-12-20T10:10:19;97529.28;;;1.56;71.37
77869;BME280;67231;59.144;37.934;2023-12-20T10:13:10;97526.06;;;1.62;71.40
77869;BME280;67231;59.144;37.934;2023-12-20T10:15:37;97535.91;;;1.69;71.36
77869;BME280;67231;59.144;37.934;2023-12-20T10:18:04;97531.31;;;1.71;71.05
77869;BME280;67231;59.144;37.934;2023-12-20T10:20:31;97542.59;;;1.71;70.86
77869;BME280;67231;59.144;37.934;2023-12-20T10:22:58;97539.47;;;1.68;70.55
77869;BME280;67231;59.144;37.934;2023-12-20T10:25:26;97537.00;;;1.66;70.70
77869;BME280;67231;59.144;37.934;2023-12-20T10:28:12;97533.44;;;1.67;70.77
77869;BME280;67231;59.144;37.934;2023-12-20T10:30:39;97542.09;;;1.68;70.73
77869;BME280;67231;59.144;37.934;2023-12-20T10:33:07;97554.34;;;1.67;70.57
77869;BME280;67231;59.144;37.934;2023-12-20T10:35:35;97548.28;;;1.67;70.70
77869;BME280;67231;59.144;37.934;2023-12-20T10:38:04;97541.28;;;1.67;70.64
77869;BME280;67231;59.144;37.934;2023-12-20T10:40:35;97541.59;;;1.64;71.05
77869;BME280;67231;59.144;37.934;2023-12-20T10:43:04;97536.38;;;1.64;70.46
77869;BME280;67231;59.144;37.934;2023-12-20T10:45:33;97528.69;;;1.62;69.94
77869;BME280;67231;59.144;37.934;2023-12-20T10:48:01;97550.09;;;1.66;69.53
77869;BME280;67231;59.144;37.934;2023-12-20T10:50:29;97545.00;;;1.64;69.51
77869;BME280;67231;59.144;37.934;2023-12-20T10:52:57;97553.66;;;1.65;69.56
77869;BME280;67231;59.144;37.934;2023-12-20T10:55:24;97544.84;;;1.66;69.72
77869;BME280;67231;59.144;37.934;2023-12-20T10:57:51;97552.03;;;1.64;69.38
77869;BME280;67231;59.144;37.934;2023-12-20T11:00:19;97546.13;;;1.62;69.53
77869;BME280;67231;59.144;37.934;2023-12-20T11:02:49;97551.50;;;1.60;69.29
77869;BME280;67231;59.144;37.934;2023-12-20T11:05:49;97547.13;;;1.61;69.53
77869;BME280;67231;59.144;37.934;2023-12-20T11:13:53;97537.59;;;1.52;69.30
77869;BME280;67231;59.144;37.934;2023-12-20T11:16:20;97554.94;;;1.53;69.30
77869;BME280;67231;59.144;37.934;2023-12-20T11:18:46;97534.03;;;1.53;69.40
77869;BME280;67231;59.144;37.934;2023-12-20T11:21:13;97530.41;;;1.54;69.48
77869;BME280;67231;59.144;37.934;2023-12-20T11:23:42;97528.97;;;1.51;69.43
77869;BME280;67231;59.144;37.934;2023-12-20T11:26:09;97543.13;;;1.49;69.09
77869;BME280;67231;59.144;37.934;2023-12-20T11:28:35;97531.88;;;1.48;68.58
77869;BME280;67231;59.144;37.934;2023-12-20T11:31:02;97543.13;;;1.49;68.71
77869;BME280;67231;59.144;37.934;2023-12-20T11:33:46;97538.72;;;1.49;68.83
77869;BME280;67231;59.144;37.934;2023-12-20T11:36:20;97541.50;;;1.48;68.82
77869;BME280;67231;59.144;37.934;2023-12-20T11:38:56;97546.88;;;1.46;68.91
77869;BME280;67231;59.144;37.934;2023-12-20T11:41:24;97560.78;;;1.47;68.98
77869;BME280;67231;59.144;37.934;2023-12-20T11:43:55;97548.69;;;1.45;68.94
77869;BME280;67231;59.144;37.934;2023-12-20T11:46:22;97543.44;;;1.45;68.89
77869;BME280;67231;59.144;37.934;2023-12-20T11:48:48;97551.44;;;1.44;68.47
77869;BME280;67231;59.144;37.934;2023-12-20T11:51:15;97551.59;;;1.42;68.55
77869;BME280;67231;59.144;37.934;2023-12-20T11:53:41;97539.53;;;1.41;68.79
77869;BME280;67231;59.144;37.934;2023-12-20T11:56:10;97542.13;;;1.41;68.85
77869;BME280;67231;59.144;37.934;2023-12-20T11:58:37;97550.78;;;1.42;69.08
77869;BME280;67231;59.144;37.934;2023-12-20T12:01:04;97567.28;;;1.42;68.86
77869;BME280;67231;59.144;37.934;2023-12-20T12:03:33;97580.34;;;1.42;68.80
77869;BME280;67231;59.144;37.934;2023-12-20T12:05:59;97581.34;;;1.41;69.32
77869;BME280;67231;59.144;37.934;2023-12-20T12:08:27;97566.47;;;1.42;68.88
77869;BME280;67231;59.144;37.934;2023-12-20T12:10:53;97579.53;;;1.42;68.75
77869;BME280;67231;59.144;37.934;2023-12-20T12:13:20;97584.75;;;1.42;68.68
77869;BME280;67231;59.144;37.934;2023-12-20T12:15:48;97577.06;;;1.40;68.96
77869;BME280;67231;59.144;37.934;2023-12-20T12:18:18;97582.28;;;1.40;68.80
77869;BME280;67231;59.144;37.934;2023-12-20T12:20:44;97573.81;;;1.38;69.21
77869;BME280;67231;59.144;37.934;2023-12-20T12:23:11;97587.81;;;1.37;68.57
77869;BME280;67231;59.144;37.934;2023-12-20T12:25:38;97594.69;;;1.38;68.48
77869;BME280;67231;59.144;37.934;2023-12-20T12:28:05;97595.50;;;1.39;68.95
77869;BME280;67231;59.144;37.934;2023-12-20T12:30:31;97583.41;;;1.38;68.61
77869;BME280;67231;59.144;37.934;2023-12-20T12:32:57;97599.94;;;1.38;68.71
77869;BME280;67231;59.144;37.934;2023-12-20T12:35:24;97614.63;;;1.39;69.22
77869;BME280;67231;59.144;37.934;2023-12-20T12:37:51;97614.63;;;1.39;68.68
77869;BME280;67231;59.144;37.934;2023-12-20T12:40:17;97624.25;;;1.39;68.79
77869;BME280;67231;59.144;37.934;2023-12-20T12:42:45;97621.47;;;1.40;68.83
77869;BME280;67231;59.144;37.934;2023-12-20T12:45:12;97624.09;;;1.40;68.68
77869;BME280;67231;59.144;37.934;2023-12-20T12:47:39;97612.69;;;1.41;68.80
77869;BME280;67231;59.144;37.934;2023-12-20T12:50:06;97629.31;;;1.40;68.39
77869;BME280;67231;59.144;37.934;2023-12-20T12:52:33;97635.38;;;1.41;68.18
77869;BME280;67231;59.144;37.934;2023-12-20T12:54:59;97624.75;;;1.42;68.36
77869;BME280;67231;59.144;37.934;2023-12-20T12:57:26;97641.44;;;1.41;68.17
77869;BME280;67231;59.144;37.934;2023-12-20T12:59:52;97652.69;;;1.42;68.44
77869;BME280;67231;59.144;37.934;2023-12-20T13:02:19;97653.50;;;1.42;68.66
77869;BME280;67231;59.144;37.934;2023-12-20T13:04:45;97649.94;;;1.43;68.43